Time;durP1;ratioP1;P1;durP2;ratioP2;P2;SDS_P1;SDS_P2;PMS_P1;PMS_P2;Temp;Humidity;BMP_temperature;BMP_pressure;BME280_temperature;BME280_humidity;BME280_pressure;Samples;Min_cycle;Max_cycle;Signal;HPM_P1;HPM_P2
2023/01/13 00:00:32;;;;;;;;;;;;;;;8.06;100.00;100223.66;5000076;28;19930;-78
2023/01/13 00:02:57;;;;;;;;;;;;;;;7.99;100.00;100205.03;4995274;28;19928;-79
2023/01/13 00:05:24;;;;;;;;;;;;;;;7.92;100.00;100198.69;4995084;28;19918;-79
2023/01/13 00:07:49;;;;;;;;;;;;;;;7.89;100.00;100172.72;4994210;28;19968;-78
2023/01/13 00:10:15;;;;;;;;;;;;;;;7.87;100.00;100160.72;4994946;28;20064;-78
2023/01/13 00:12:41;;;;;;;;;;;;;;;7.80;100.00;100155.25;4994126;28;20307;-78
2023/01/13 00:15:06;;;;;;;;;;;;;;;7.74;100.00;100153.22;5025764;28;20224;-78
2023/01/13 00:17:31;;;;;;;;;;;;;;;7.71;100.00;100142.97;4995364;28;19926;-78
2023/01/13 00:19:57;;;;;;;;;;;;;;;7.63;100.00;100130.59;4999955;28;20418;-78
2023/01/13 00:22:22;;;;;;;;;;;;;;;7.62;100.00;100123.69;4997479;28;20380;-78
2023/01/13 00:24:47;;;;;;;;;;;;;;;7.55;100.00;100099.81;5005704;28;19921;-78
2023/01/13 00:27:12;;;;;;;;;;;;;;;7.51;100.00;100100.28;4999493;28;19926;-78
2023/01/13 00:29:38;;;;;;;;;;;;;;;7.46;100.00;100087.59;4999606;28;19926;-79
2023/01/13 00:32:03;;;;;;;;;;;;;;;7.40;100.00;100083.78;4998073;28;20290;-79
2023/01/13 00:34:28;;;;;;;;;;;;;;;7.37;100.00;100068.31;5028004;28;19918;-77
2023/01/13 00:36:53;;;;;;;;;;;;;;;7.35;100.00;100059.75;5015158;28;19922;-77
2023/01/13 00:39:19;;;;;;;;;;;;;;;7.33;100.00;100061.69;5014324;28;19948;-79
2023/01/13 00:44:28;;;;;;;;;;;;;;;7.26;100.00;100065.91;4995565;28;19925;-78
2023/01/13 00:46:53;;;;;;;;;;;;;;;7.20;100.00;100064.66;4997987;28;19922;-78
2023/01/13 00:49:18;;;;;;;;;;;;;;;7.21;100.00;100078.66;4999487;28;20016;-78
2023/01/13 00:51:44;;;;;;;;;;;;;;;7.17;100.00;100077.28;4999077;28;20032;-79
2023/01/13 00:54:09;;;;;;;;;;;;;;;7.10;100.00;100071.78;4999734;28;20328;-78
2023/01/13 00:56:34;;;;;;;;;;;;;;;7.09;100.00;100079.81;4997184;28;19925;-79
2023/01/13 00:59:00;;;;;;;;;;;;;;;7.07;100.00;100081.75;5012982;28;19956;-78
2023/01/13 01:01:26;;;;;;;;;;;;;;;7.04;100.00;100074.19;4997392;28;19927;-78
2023/01/13 01:03:52;;;;;;;;;;;;;;;7.02;100.00;100084.00;5013797;28;20048;-78
2023/01/13 01:06:19;;;;;;;;;;;;;;;6.96;100.00;100090.63;4997283;28;19921;-78
2023/01/13 01:08:44;;;;;;;;;;;;;;;6.96;100.00;100088.00;4997532;28;20293;-78
2023/01/13 01:11:11;;;;;;;;;;;;;;;6.94;100.00;100077.66;4997604;28;20013;-78
2023/01/13 01:13:37;;;;;;;;;;;;;;;6.94;100.00;100071.59;4997040;28;20234;-76
2023/01/13 01:16:23;;;;;;;;;;;;;;;6.90;100.00;100076.31;4998868;28;20052;-77
2023/01/13 01:18:49;;;;;;;;;;;;;;;6.86;100.00;100084.59;4997363;28;19921;-79
2023/01/13 01:21:15;;;;;;;;;;;;;;;6.80;100.00;100073.72;4997866;28;20008;-77
2023/01/13 01:23:40;;;;;;;;;;;;;;;6.83;100.00;100077.84;5013096;28;20031;-78
2023/01/13 01:26:07;;;;;;;;;;;;;;;6.82;100.00;100070.97;4997788;28;19920;-77
2023/01/13 01:28:33;;;;;;;;;;;;;;;6.79;100.00;100068.59;4998504;28;19952;-77
2023/01/13 01:30:59;;;;;;;;;;;;;;;6.79;100.00;100073.84;4997995;28;20009;-78
2023/01/13 01:33:24;;;;;;;;;;;;;;;6.76;100.00;100071.53;5028240;28;20012;-78
2023/01/13 01:35:50;;;;;;;;;;;;;;;6.77;100.00;100060.06;4997371;28;19965;-78
2023/01/13 01:38:15;;;;;;;;;;;;;;;6.73;100.00;100058.72;4997466;28;19922;-78
2023/01/13 01:40:40;;;;;;;;;;;;;;;6.76;100.00;100066.28;5029930;28;19922;-77
2023/01/13 01:46:12;;;;;;;;;;;;;;;6.69;100.00;100054.72;4997212;28;19943;-78
2023/01/13 01:48:41;;;;;;;;;;;;;;;6.62;100.00;100056.25;4997349;28;19925;-78
2023/01/13 01:51:08;;;;;;;;;;;;;;;6.63;100.00;100055.31;4997470;28;19922;-78
2023/01/13 01:53:34;;;;;;;;;;;;;;;6.62;100.00;100057.09;4997854;28;19965;-79
2023/01/13 01:55:59;;;;;;;;;;;;;;;6.62;100.00;100057.09;4996825;28;20412;-78
2023/01/13 01:58:29;;;;;;;;;;;;;;;6.63;100.00;100048.25;4995760;28;20012;-78
2023/01/13 02:00:55;;;;;;;;;;;;;;;6.63;100.00;100050.06;5026619;28;19964;-78
2023/01/13 02:03:20;;;;;;;;;;;;;;;6.62;100.00;100045.78;5010349;28;19957;-78
2023/01/13 02:05:45;;;;;;;;;;;;;;;6.61;100.00;100052.00;4996571;28;19971;-78
2023/01/13 02:08:11;;;;;;;;;;;;;;;6.62;100.00;100056.25;4997503;28;19922;-78
2023/01/13 02:10:38;;;;;;;;;;;;;;;6.61;100.00;100041.50;4996683;28;19980;-78
2023/01/13 02:13:05;;;;;;;;;;;;;;;6.57;100.00;100060.13;4997144;28;20012;-78
2023/01/13 02:15:49;;;;;;;;;;;;;;;6.67;100.00;100046.19;4995952;28;19921;-78
2023/01/13 02:18:29;;;;;;;;;;;;;;;6.71;100.00;100034.44;4996239;28;19917;-78
2023/01/13 02:20:59;;;;;;;;;;;;;;;6.68;100.00;100026.84;4995959;28;20708;-78
2023/01/13 02:26:34;;;;;;;;;;;;;;;6.67;100.00;100030.44;4995178;28;19940;-78
2023/01/13 02:31:47;;;;;;;;;;;;;;;6.77;100.00;100008.47;4994088;28;19929;-77
2023/01/13 02:34:31;;;;;;;;;;;;;;;6.84;100.00;100002.59;4995229;28;19918;-77
2023/01/13 02:37:27;;;;;;;;;;;;;;;6.88;100.00;99999.56;5002789;28;19932;-78
2023/01/13 02:39:52;;;;;;;;;;;;;;;6.82;100.00;99992.28;4985791;28;20400;-77
2023/01/13 02:45:13;;;;;;;;;;;;;;;6.78;100.00;99999.59;4996818;28;20049;-77
2023/01/13 02:47:40;;;;;;;;;;;;;;;6.77;100.00;99986.63;5009070;28;19921;-77
2023/01/13 02:50:09;;;;;;;;;;;;;;;6.77;100.00;99982.22;4995508;28;19944;-78
2023/01/13 02:52:43;;;;;;;;;;;;;;;6.76;100.00;99982.38;4996657;28;20592;-78
2023/01/13 02:55:15;;;;;;;;;;;;;;;6.72;100.00;99983.63;4995424;28;19918;-78
2023/01/13 02:57:42;;;;;;;;;;;;;;;6.67;100.00;100002.44;4995339;28;19917;-77
2023/01/13 03:00:08;;;;;;;;;;;;;;;6.64;100.00;99994.00;4997040;28;20020;-78
2023/01/13 03:02:34;;;;;;;;;;;;;;;6.70;100.00;99996.06;4995795;28;20358;-78
2023/01/13 03:04:59;;;;;;;;;;;;;;;6.74;100.00;99995.63;4996676;28;20218;-79
2023/01/13 03:07:27;;;;;;;;;;;;;;;6.70;100.00;99996.06;4995479;28;19913;-77
2023/01/13 03:09:58;;;;;;;;;;;;;;;6.70;100.00;100012.59;5002719;28;19952;-77
2023/01/13 03:12:33;;;;;;;;;;;;;;;6.71;100.00;99987.25;5012249;28;20390;-77
2023/01/13 03:15:12;;;;;;;;;;;;;;;6.76;100.00;99980.56;4994003;28;19928;-78
2023/01/13 03:17:43;;;;;;;;;;;;;;;6.74;100.00;99969.41;4994392;28;19922;-78
2023/01/13 03:20:24;;;;;;;;;;;;;;;6.82;100.00;99973.09;4994212;28;19988;-78
2023/01/13 03:22:55;;;;;;;;;;;;;;;6.89;100.00;99980.22;5025996;28;19933;-78
2023/01/13 03:25:28;;;;;;;;;;;;;;;6.95;100.00;99965.69;4995126;28;19972;-78
2023/01/13 03:27:59;;;;;;;;;;;;;;;7.02;100.00;99958.88;5026980;28;19922;-78
2023/01/13 03:30:48;;;;;;;;;;;;;;;6.95;100.00;99957.81;4994842;28;20528;-78
2023/01/13 03:33:15;;;;;;;;;;;;;;;6.88;100.00;99957.59;5026441;28;19960;-78
2023/01/13 03:35:43;;;;;;;;;;;;;;;6.87;100.00;99955.94;5026906;28;19922;-78
2023/01/13 03:38:16;;;;;;;;;;;;;;;6.84;100.00;99948.38;4994936;28;20404;-78
2023/01/13 03:40:48;;;;;;;;;;;;;;;6.83;100.00;99949.31;5026435;28;19964;-78
2023/01/13 03:46:06;;;;;;;;;;;;;;;6.73;100.00;99957.28;4995288;28;19954;-77
2023/01/13 03:48:33;;;;;;;;;;;;;;;6.76;100.00;99943.03;4993649;28;19972;-77
2023/01/13 03:51:10;;;;;;;;;;;;;;;6.73;100.00;99953.81;4994627;28;19921;-78
2023/01/13 03:53:42;;;;;;;;;;;;;;;6.75;100.00;99946.59;4998976;28;19922;-77
2023/01/13 03:56:15;;;;;;;;;;;;;;;6.78;100.00;99946.34;4998601;28;20008;-77
2023/01/13 03:58:42;;;;;;;;;;;;;;;6.96;100.00;99938.47;4998946;28;19932;-76
2023/01/13 04:01:07;;;;;;;;;;;;;;;6.95;100.00;99935.03;4998242;28;20031;-77
2023/01/13 04:03:32;;;;;;;;;;;;;;;7.01;100.00;99930.97;4998899;28;20016;-77
2023/01/13 04:06:03;;;;;;;;;;;;;;;6.92;100.00;99924.81;4999283;28;20029;-77
2023/01/13 04:08:29;;;;;;;;;;;;;;;6.93;100.00;99929.13;4998189;28;20011;-77
2023/01/13 04:11:01;;;;;;;;;;;;;;;6.90;100.00;99928.56;4998365;28;19926;-77
2023/01/13 04:13:28;;;;;;;;;;;;;;;6.95;100.00;99926.34;5030609;28;20016;-77
2023/01/13 04:15:54;;;;;;;;;;;;;;;6.94;100.00;99933.38;4998427;28;20352;-77
2023/01/13 04:18:24;;;;;;;;;;;;;;;6.93;100.00;99918.63;5006011;28;19922;-78
2023/01/13 04:20:50;;;;;;;;;;;;;;;6.94;100.00;99922.88;5028748;28;19913;-78
2023/01/13 04:23:16;;;;;;;;;;;;;;;6.89;100.00;99919.06;4997551;28;20377;-77
2023/01/13 04:25:42;;;;;;;;;;;;;;;6.83;100.00;99912.59;4998258;28;20057;-77
2023/01/13 04:28:08;;;;;;;;;;;;;;;6.84;100.00;99914.28;5028684;28;20755;-76
2023/01/13 04:30:34;;;;;;;;;;;;;;;6.79;100.00;99904.22;4997913;28;19925;-77
2023/01/13 04:32:59;;;;;;;;;;;;;;;6.79;100.00;99912.09;5012438;28;19921;-77
2023/01/13 04:35:24;;;;;;;;;;;;;;;6.79;100.00;99927.00;5013696;28;19922;-77
2023/01/13 04:37:49;;;;;;;;;;;;;;;6.72;100.00;99925.94;4998505;28;19929;-77
2023/01/13 04:40:15;;;;;;;;;;;;;;;6.73;100.00;99925.81;4998024;28;20345;-78
2023/01/13 04:42:43;;;;;;;;;;;;;;;6.72;100.00;99924.13;4998499;28;19930;-77
2023/01/13 04:45:08;;;;;;;;;;;;;;;6.77;100.00;99928.94;4998494;28;19917;-77
2023/01/13 04:47:33;;;;;;;;;;;;;;;6.84;100.00;99943.13;4997076;28;19948;-77
2023/01/13 04:49:59;;;;;;;;;;;;;;;6.89;100.00;99938.25;4998608;28;19929;-77
2023/01/13 04:52:24;;;;;;;;;;;;;;;6.95;100.00;99910.63;4997302;28;20040;-77
2023/01/13 04:54:49;;;;;;;;;;;;;;;7.00;100.00;99929.34;4999134;28;19925;-77
2023/01/13 04:57:14;;;;;;;;;;;;;;;7.00;100.00;99922.28;4997814;28;20313;-77
2023/01/13 04:59:40;;;;;;;;;;;;;;;6.99;100.00;99909.34;5029794;28;20297;-77
2023/01/13 05:02:07;;;;;;;;;;;;;;;6.99;100.00;99904.09;4996922;28;19917;-78
2023/01/13 05:04:33;;;;;;;;;;;;;;;7.00;100.00;99914.41;4998870;28;20433;-77
2023/01/13 05:06:58;;;;;;;;;;;;;;;7.15;100.00;99904.22;5013013;28;19928;-77
2023/01/13 05:09:23;;;;;;;;;;;;;;;7.18;100.00;99889.97;4996222;28;19975;-78
2023/01/13 05:17:19;;;;;;;;;;;;;;;7.17;100.00;99878.66;4998597;28;19968;-77
2023/01/13 05:19:44;;;;;;;;;;;;;;;7.21;100.00;99882.63;4996431;28;19929;-78
2023/01/13 05:27:37;;;;;;;;;;;;;;;7.23;100.00;99851.00;4996940;28;19925;-77
2023/01/13 05:30:03;;;;;;;;;;;;;;;7.25;100.00;99859.53;4995746;28;19926;-77
2023/01/13 05:32:28;;;;;;;;;;;;;;;7.29;100.00;99871.34;5026192;28;20083;-77
2023/01/13 05:34:54;;;;;;;;;;;;;;;7.28;100.00;99861.84;5012733;28;19929;-77
2023/01/13 05:37:19;;;;;;;;;;;;;;;7.31;100.00;99865.97;4998447;28;19914;-77
2023/01/13 05:45:17;;;;;;;;;;;;;;;7.28;100.00;99867.09;4997142;28;20286;-77
2023/01/13 05:47:42;;;;;;;;;;;;;;;7.27;100.00;99857.56;4996608;28;19921;-77
2023/01/13 05:50:08;;;;;;;;;;;;;;;7.33;100.00;99850.88;4995957;28;19925;-77
2023/01/13 05:52:33;;;;;;;;;;;;;;;7.35;100.00;99852.38;4997554;28;19930;-78
2023/01/13 05:54:58;;;;;;;;;;;;;;;7.33;100.00;99846.47;4996581;28;19933;-77
2023/01/13 05:57:23;;;;;;;;;;;;;;;7.31;100.00;99856.28;5028129;28;20262;-77
2023/01/13 05:59:49;;;;;;;;;;;;;;;7.34;100.00;99852.56;4995540;28;19922;-78
2023/01/13 06:02:14;;;;;;;;;;;;;;;7.35;100.00;99830.56;4995686;28;19995;-77
2023/01/13 06:04:39;;;;;;;;;;;;;;;7.33;100.00;99846.47;4997216;28;20028;-78
2023/01/13 06:07:04;;;;;;;;;;;;;;;7.39;100.00;99829.28;4996787;28;19938;-78
2023/01/13 06:09:30;;;;;;;;;;;;;;;7.40;100.00;99842.25;4995033;28;19932;-78
2023/01/13 06:11:56;;;;;;;;;;;;;;;7.34;100.00;99836.81;4994205;28;19983;-77
2023/01/13 06:14:21;;;;;;;;;;;;;;;7.37;100.00;99828.59;4995926;28;19913;-76
2023/01/13 06:16:46;;;;;;;;;;;;;;;7.32;100.00;99834.31;4996568;28;20120;-79
2023/01/13 06:19:12;;;;;;;;;;;;;;;7.31;100.00;99827.41;4997266;28;19933;-77
2023/01/13 06:21:40;;;;;;;;;;;;;;;7.29;100.00;99846.91;4997075;28;19978;-77
2023/01/13 06:24:06;;;;;;;;;;;;;;;7.26;100.00;99849.88;4995896;28;19917;-77
2023/01/13 06:26:37;;;;;;;;;;;;;;;7.28;100.00;99843.47;4995377;28;20287;-77
2023/01/13 06:29:02;;;;;;;;;;;;;;;7.26;100.00;99845.44;4994407;28;19925;-79
2023/01/13 06:31:28;;;;;;;;;;;;;;;7.23;100.00;99843.13;4995374;28;19921;-78
2023/01/13 06:33:57;;;;;;;;;;;;;;;7.20;100.00;99849.47;4996746;28;20309;-79
2023/01/13 06:36:24;;;;;;;;;;;;;;;7.13;100.00;99864.19;5023510;28;19941;-78
2023/01/13 06:38:51;;;;;;;;;;;;;;;6.98;100.00;99879.63;5023052;28;19922;-78
2023/01/13 06:43:13;;;;;;;;;;;;;;;6.90;100.00;99895.31;5010231;28;19979;-78
2023/01/13 06:44:03;;;;;;;;;;;;;;;6.87;100.00;99916.59;4994182;28;19933;-77
2023/01/13 06:46:28;;;;;;;;;;;;;;;6.76;100.00;99933.34;4995909;28;19925;-78
2023/01/13 06:48:53;;;;;;;;;;;;;;;6.79;100.00;99947.97;4994811;28;19925;-78
2023/01/13 06:51:19;;;;;;;;;;;;;;;6.81;100.00;99959.13;4994197;28;20639;-78
2023/01/13 06:53:44;;;;;;;;;;;;;;;6.85;100.00;99947.38;4993870;28;20451;-77
2023/01/13 06:56:09;;;;;;;;;;;;;;;6.82;100.00;99952.13;4993721;28;19922;-78
2023/01/13 06:58:34;;;;;;;;;;;;;;;6.76;100.00;99956.16;4994112;28;19924;-77
2023/01/13 07:01:00;;;;;;;;;;;;;;;6.75;100.00;99957.09;4995375;28;19932;-78
2023/01/13 07:03:25;;;;;;;;;;;;;;;6.73;100.00;99970.38;4993999;28;19934;-77
2023/01/13 07:05:51;;;;;;;;;;;;;;;6.69;100.00;99981.31;4994452;28;20009;-79
2023/01/13 07:08:17;;;;;;;;;;;;;;;6.64;100.00;99987.00;4993883;28;19945;-78
2023/01/13 07:10:42;;;;;;;;;;;;;;;6.62;100.00;100014.31;4994934;28;20035;-78
2023/01/13 07:15:52;;;;;;;;;;;;;;;6.56;100.00;100011.31;4996116;28;19960;-77
2023/01/13 07:18:17;;;;;;;;;;;;;;;6.56;100.00;100016.53;4994927;28;20305;-79
2023/01/13 07:20:42;;;;;;;;;;;;;;;6.55;100.00;100043.75;4994945;28;19921;-77
2023/01/13 07:23:08;;;;;;;;;;;;;;;6.54;100.00;100063.06;5010093;28;19930;-77
2023/01/13 07:25:33;;;;;;;;;;;;;;;6.50;100.00;100060.88;4993745;28;20388;-78
2023/01/13 07:27:58;;;;;;;;;;;;;;;6.37;100.00;100071.66;4999056;28;19957;-77
2023/01/13 07:30:23;;;;;;;;;;;;;;;6.33;100.00;100088.63;4996302;28;20578;-78
2023/01/13 07:32:49;;;;;;;;;;;;;;;6.27;100.00;100083.94;4998094;28;19930;-77
2023/01/13 07:35:14;;;;;;;;;;;;;;;6.28;100.00;100083.81;4999594;28;20079;-78
2023/01/13 07:37:40;;;;;;;;;;;;;;;6.29;100.00;100082.00;4998579;28;20565;-78
2023/01/13 07:40:07;;;;;;;;;;;;;;;6.28;100.00;100081.19;4997121;28;19968;-78
2023/01/13 07:45:20;;;;;;;;;;;;;;;6.27;100.00;100090.03;4997388;28;20032;-77
2023/01/13 07:47:45;;;;;;;;;;;;;;;6.29;100.00;100071.53;4998195;28;20012;-78
2023/01/13 07:50:10;;;;;;;;;;;;;;;6.29;100.00;100085.47;4996698;28;19965;-78
2023/01/13 07:52:35;;;;;;;;;;;;;;;6.26;100.00;100067.41;4998315;28;19921;-78
2023/01/13 07:55:01;;;;;;;;;;;;;;;6.25;100.00;100080.63;4996862;28;19928;-78
2023/01/13 07:57:26;;;;;;;;;;;;;;;6.27;100.00;100089.19;5005571;28;20289;-78
2023/01/13 07:59:51;;;;;;;;;;;;;;;6.29;100.00;100097.72;4997927;28;20871;-76
2023/01/13 08:02:17;;;;;;;;;;;;;;;6.26;100.00;100098.03;5012603;28;19949;-78
2023/01/13 08:04:42;;;;;;;;;;;;;;;6.31;100.00;100095.81;4996816;28;19918;-78
2023/01/13 08:07:07;;;;;;;;;;;;;;;6.28;100.00;100104.78;4997085;28;20636;-78
2023/01/13 08:09:32;;;;;;;;;;;;;;;6.33;100.00;100088.63;4996730;28;19918;-78
2023/01/13 08:14:42;;;;;;;;;;;;;;;6.31;100.00;100077.47;4997554;28;20621;-79
2023/01/13 08:17:08;;;;;;;;;;;;;;;6.38;100.00;100086.44;4996810;28;19993;-78
2023/01/13 08:19:33;;;;;;;;;;;;;;;6.42;100.00;100098.25;4995949;28;19972;-78
2023/01/13 08:21:58;;;;;;;;;;;;;;;6.44;100.00;100095.50;5004885;28;20020;-76
2023/01/13 08:24:23;;;;;;;;;;;;;;;6.49;100.00;100080.16;4998888;28;19917;-77
2023/01/13 08:26:49;;;;;;;;;;;;;;;6.54;100.00;100097.13;4997619;28;19968;-78
2023/01/13 08:29:14;;;;;;;;;;;;;;;6.54;100.00;100089.28;4994962;28;19926;-78
2023/01/13 08:31:39;;;;;;;;;;;;;;;6.51;100.00;100078.22;4995006;28;19928;-78
2023/01/13 08:34:04;;;;;;;;;;;;;;;6.44;100.00;100085.00;4997711;28;19941;-77
2023/01/13 08:36:30;;;;;;;;;;;;;;;6.46;100.00;100094.38;4997717;28;20201;-78
2023/01/13 08:38:55;;;;;;;;;;;;;;;6.50;100.00;100095.75;4996007;28;20086;-78
2023/01/13 08:41:53;;;;;;;;;;;;;;;6.55;100.00;100087.47;5027107;28;19925;-77
2023/01/13 08:44:07;;;;;;;;;;;;;;;6.57;100.00;100083.72;4995794;28;20348;-77
2023/01/13 08:46:33;;;;;;;;;;;;;;;6.60;100.00;100085.25;4996812;28;19994;-77
2023/01/13 08:48:58;;;;;;;;;;;;;;;6.65;100.00;100090.91;4996951;28;19917;-77
2023/01/13 08:51:23;;;;;;;;;;;;;;;6.64;100.00;100091.03;4995789;28;19924;-77
2023/01/13 08:53:48;;;;;;;;;;;;;;;6.69;100.00;100089.63;4996015;28;19953;-77
2023/01/13 08:56:14;;;;;;;;;;;;;;;6.71;100.00;100089.50;4998832;28;19922;-77
2023/01/13 08:58:39;;;;;;;;;;;;;;;6.68;100.00;100082.72;4996536;28;19922;-78
2023/01/13 09:01:06;;;;;;;;;;;;;;;6.62;100.00;100088.56;4995786;28;20005;-79
2023/01/13 09:03:31;;;;;;;;;;;;;;;6.61;100.00;100093.94;4995435;28;19921;-79
2023/01/13 09:05:56;;;;;;;;;;;;;;;6.54;100.00;100104.19;4996310;28;20314;-77
2023/01/13 09:08:21;;;;;;;;;;;;;;;6.52;100.00;100125.28;5012495;28;20086;-78
2023/01/13 09:10:47;;;;;;;;;;;;;;;6.53;100.00;100136.59;4996636;28;19956;-77
2023/01/13 09:13:12;;;;;;;;;;;;;;;6.48;100.00;100155.38;4994927;28;19937;-77
2023/01/13 09:15:39;;;;;;;;;;;;;;;6.47;100.00;100185.19;5027462;28;19921;-78
2023/01/13 09:18:04;;;;;;;;;;;;;;;6.46;100.00;100203.66;5028128;28;19918;-77
2023/01/13 09:20:29;;;;;;;;;;;;;;;6.47;100.00;100219.25;4996787;28;19921;-77
2023/01/13 09:22:54;;;;;;;;;;;;;;;6.44;100.00;100243.13;4997122;28;19925;-77
2023/01/13 09:25:19;;;;;;;;;;;;;;;6.26;100.00;100253.47;4997389;28;19934;-77
2023/01/13 09:27:45;;;;;;;;;;;;;;;6.19;100.00;100249.72;4995907;28;19940;-77
2023/01/13 09:30:10;;;;;;;;;;;;;;;6.21;100.00;100275.81;4996139;28;19979;-78
2023/01/13 09:32:37;;;;;;;;;;;;;;;6.21;100.00;100291.53;4994794;28;19992;-78
2023/01/13 09:35:03;;;;;;;;;;;;;;;6.08;100.00;100313.56;4996775;28;20386;-78
2023/01/13 09:37:36;;;;;;;;;;;;;;;6.11;100.00;100329.00;4996875;28;19960;-77
2023/01/13 09:40:09;;;;;;;;;;;;;;;6.17;100.00;100346.81;5026586;28;19992;-78
2023/01/13 09:45:43;;;;;;;;;;;;;;;6.25;100.00;100384.59;4995115;28;20037;-78
2023/01/13 09:48:17;;;;;;;;;;;;;;;6.27;100.00;100387.94;4996340;28;19956;-78
2023/01/13 09:50:45;;;;;;;;;;;;;;;6.29;100.00;100388.63;4996019;28;20267;-78
2023/01/13 09:53:29;;;;;;;;;;;;;;;6.23;100.00;100404.88;4996593;28;19925;-78
2023/01/13 09:55:54;;;;;;;;;;;;;;;6.25;100.00;100403.81;4996674;28;19925;-78
2023/01/13 09:58:20;;;;;;;;;;;;;;;6.31;100.00;100415.53;4995088;28;19922;-78
2023/01/13 10:00:54;;;;;;;;;;;;;;;6.31;100.00;100415.53;4995184;28;19965;-78
2023/01/13 10:03:30;;;;;;;;;;;;;;;6.28;100.00;100416.63;4993666;28;19914;-78
2023/01/13 10:05:58;;;;;;;;;;;;;;;6.34;100.00;100425.78;5026274;28;19917;-78
2023/01/13 10:08:25;;;;;;;;;;;;;;;6.32;100.00;100436.38;4997399;28;19918;-77
2023/01/13 10:10:54;;;;;;;;;;;;;;;6.37;100.00;100431.56;4996234;28;19925;-78
2023/01/13 10:13:22;;;;;;;;;;;;;;;6.36;100.00;100453.50;4994260;28;19960;-78
2023/01/13 10:16:08;;;;;;;;;;;;;;;6.35;100.00;100451.00;4995839;28;19918;-78
2023/01/13 10:18:44;;;;;;;;;;;;;;;6.31;100.00;100447.81;4983261;28;20011;-78
2023/01/13 10:21:18;;;;;;;;;;;;;;;6.29;100.00;100448.91;5026896;28;19983;-78
2023/01/13 10:23:50;;;;;;;;;;;;;;;6.31;100.00;100462.72;4995595;28;20543;-78
2023/01/13 10:26:37;;;;;;;;;;;;;;;6.31;100.00;100460.09;4995520;28;19983;-78
2023/01/13 10:29:02;;;;;;;;;;;;;;;6.33;100.00;100466.03;4994152;28;19918;-78
2023/01/13 10:31:27;;;;;;;;;;;;;;;6.34;100.00;100462.47;4994870;28;20388;-78
2023/01/13 10:34:00;;;;;;;;;;;;;;;6.41;100.00;100465.38;5009928;28;19925;-78
2023/01/13 10:36:25;;;;;;;;;;;;;;;6.40;100.00;100469.78;5026951;28;19953;-78
2023/01/13 10:38:51;;;;;;;;;;;;;;;6.46;100.00;100461.38;4996051;28;20011;-78
2023/01/13 10:41:19;;;;;;;;;;;;;;;6.51;100.00;100463.59;4994937;28;20731;-78
2023/01/13 10:43:44;;;;;;;;;;;;;;;6.52;100.00;100463.47;4992973;28;19927;-78
2023/01/13 10:46:10;;;;;;;;;;;;;;;6.63;100.00;100464.34;4994488;28;20032;-78
2023/01/13 10:48:39;;;;;;;;;;;;;;;6.68;100.00;100464.75;4994602;28;19913;-77
2023/01/13 10:51:16;;;;;;;;;;;;;;;6.76;100.00;100478.88;4996035;28;19924;-78
2023/01/13 10:53:48;;;;;;;;;;;;;;;6.85;100.00;100439.69;4993839;28;20465;-78
2023/01/13 10:56:15;;;;;;;;;;;;;;;6.83;100.00;100426.69;4994048;28;19918;-78
2023/01/13 10:58:41;;;;;;;;;;;;;;;6.86;100.00;100421.19;4993625;28;19929;-78
2023/01/13 11:01:08;;;;;;;;;;;;;;;6.88;100.00;100424.50;4993421;28;19921;-78
2023/01/13 11:03:40;;;;;;;;;;;;;;;6.84;100.00;100401.28;4995101;28;19949;-78
2023/01/13 11:06:06;;;;;;;;;;;;;;;6.94;100.00;100400.34;4993003;28;20598;-78
2023/01/13 11:08:42;;;;;;;;;;;;;;;6.99;100.00;100400.75;4994989;28;19942;-78
2023/01/13 11:11:28;;;;;;;;;;;;;;;7.00;100.00;100386.66;4994072;28;19992;-77
2023/01/13 11:16:42;;;;;;;;;;;;;;;7.14;100.00;100379.34;4993767;28;20009;-78
2023/01/13 11:19:11;;;;;;;;;;;;;;;7.20;100.00;100370.91;4994629;28;19928;-78
2023/01/13 11:21:39;;;;;;;;;;;;;;;7.22;100.00;100353.22;5008331;28;19921;-78
2023/01/13 11:24:07;;;;;;;;;;;;;;;7.27;100.00;100343.13;4993969;28;19987;-77
2023/01/13 11:26:50;;;;;;;;;;;;;;;7.33;100.00;100333.88;4994586;28;19917;-78
2023/01/13 11:29:35;;;;;;;;;;;;;;;7.30;100.00;100324.50;4993635;28;19944;-77
2023/01/13 11:32:09;;;;;;;;;;;;;;;7.25;100.00;100316.22;4993643;28;19921;-78
2023/01/13 11:34:35;;;;;;;;;;;;;;;7.31;100.00;100296.44;5024549;28;19922;-77
2023/01/13 11:37:02;;;;;;;;;;;;;;;7.26;100.00;100296.88;5003131;28;20016;-77
2023/01/13 11:39:46;;;;;;;;;;;;;;;7.29;100.00;100296.56;4994799;28;19921;-77
2023/01/13 11:42:19;;;;;;;;;;;;;;;7.26;100.00;100280.28;4994324;28;19968;-78
2023/01/13 11:44:48;;;;;;;;;;;;;;;7.49;100.00;100286.88;5023912;28;19927;-77
2023/01/13 11:47:16;;;;;;;;;;;;;;;7.68;100.00;100298.25;4993368;28;19918;-78
2023/01/13 11:49:47;;;;;;;;;;;;;;;7.74;100.00;100295.88;4995056;28;19925;-78
2023/01/13 11:52:18;;;;;;;;;;;;;;;7.71;100.00;100274.31;4995342;28;19917;-78
2023/01/13 11:54:59;;;;;;;;;;;;;;;7.50;100.00;100262.25;4993996;28;20799;-78
2023/01/13 11:57:42;;;;;;;;;;;;;;;7.39;100.00;100265.88;4994989;28;19959;-77
2023/01/13 12:00:10;;;;;;;;;;;;;;;7.27;100.00;100274.06;4993591;28;19925;-78
2023/01/13 12:02:49;;;;;;;;;;;;;;;7.35;100.00;100301.25;4994514;28;20057;-78
2023/01/13 12:05:24;;;;;;;;;;;;;;;7.36;100.00;100294.19;4992790;28;19983;-78
2023/01/13 12:08:13;;;;;;;;;;;;;;;7.33;100.00;100302.38;4994944;28;20441;-78
2023/01/13 12:11:11;;;;;;;;;;;;;;;7.38;100.00;100311.50;4980566;28;19921;-78
2023/01/13 12:13:36;;;;;;;;;;;;;;;7.41;100.00;100292.81;4935728;28;20336;-78
2023/01/13 12:16:07;;;;;;;;;;;;;;;7.36;100.00;100307.31;4929241;29;19922;-78
2023/01/13 12:18:50;;;;;;;;;;;;;;;7.30;100.00;100316.63;4937322;29;19924;-78
2023/01/13 12:21:19;;;;;;;;;;;;;;;7.24;100.00;100330.31;4923422;29;20001;-77
2023/01/13 12:23:53;;;;;;;;;;;;;;;7.24;100.00;100346.03;4936211;29;19926;-78
2023/01/13 12:26:18;;;;;;;;;;;;;;;7.19;100.00;100364.03;4937745;29;20465;-78
2023/01/13 12:29:02;;;;;;;;;;;;;;;7.20;100.00;100368.28;4928638;29;19927;-78
2023/01/13 12:31:28;;;;;;;;;;;;;;;7.23;100.00;100378.53;4935025;29;20346;-78
2023/01/13 12:33:54;;;;;;;;;;;;;;;7.25;100.00;100383.63;4935557;28;19937;-78
2023/01/13 12:36:28;;;;;;;;;;;;;;;7.12;100.00;100381.28;4928230;28;19918;-78
2023/01/13 12:39:08;;;;;;;;;;;;;;;7.14;100.00;100379.34;4935240;28;19949;-78
2023/01/13 12:44:15;;;;;;;;;;;;;;;7.22;100.00;100361.94;4927928;29;19985;-78
2023/01/13 12:44:25;;;;;;;;;;;;;;;7.31;100.00;100373.38;4935355;28;19922;-78
2023/01/13 12:46:57;;;;;;;;;;;;;;;7.30;100.00;100371.75;4935601;28;19923;-78
2023/01/13 12:49:23;;;;;;;;;;;;;;;7.30;100.00;100369.13;4971019;28;20009;-79
2023/01/13 12:51:55;;;;;;;;;;;;;;;7.29;100.00;100374.50;5027955;28;20000;-76
2023/01/13 12:54:29;;;;;;;;;;;;;;;7.37;100.00;100382.50;4996199;28;20378;-77
2023/01/13 12:56:55;;;;;;;;;;;;;;;7.38;100.00;100369.25;4997629;28;19918;-77
2023/01/13 12:59:20;;;;;;;;;;;;;;;7.41;100.00;100358.44;4993768;28;19925;-78
2023/01/13 13:01:46;;;;;;;;;;;;;;;7.50;100.00;100366.47;4993251;28;19937;-78
2023/01/13 13:04:13;;;;;;;;;;;;;;;7.51;100.00;100349.72;4997407;28;19918;-77
2023/01/13 13:06:40;;;;;;;;;;;;;;;7.62;100.00;100349.53;4991183;28;19913;-78
2023/01/13 13:09:17;;;;;;;;;;;;;;;7.72;100.00;100325.88;4995809;28;19922;-78
2023/01/13 13:14:36;;;;;;;;;;;;;;;7.65;100.00;100295.94;4996001;28;19922;-77
2023/01/13 13:17:02;;;;;;;;;;;;;;;7.65;100.00;100303.81;5010503;28;20631;-77
2023/01/13 13:19:30;;;;;;;;;;;;;;;7.65;100.00;100291.50;4995767;28;19921;-78
2023/01/13 13:22:08;;;;;;;;;;;;;;;7.60;100.00;100276.16;4994248;28;19928;-79
2023/01/13 13:24:34;;;;;;;;;;;;;;;7.65;100.00;100295.94;4997181;28;19921;-77
2023/01/13 13:27:16;;;;;;;;;;;;;;;7.63;100.00;100301.31;5014172;28;19992;-78
2023/01/13 13:29:51;;;;;;;;;;;;;;;7.57;100.00;100294.81;4997671;28;19926;-78
2023/01/13 13:32:37;;;;;;;;;;;;;;;7.58;100.00;100311.44;5026886;28;20412;-79
2023/01/13 13:35:21;;;;;;;;;;;;;;;7.57;100.00;100320.25;4995524;28;20330;-78
2023/01/13 13:46:45;;;;;;;;;;;;;;;7.63;100.00;100333.66;4993285;28;19928;-78